createdAt,value
2023-01-21T00:00:58.025Z,99.90
2023-01-21T00:03:24.961Z,99.90
2023-01-21T00:05:51.992Z,99.90
2023-01-21T00:08:18.795Z,99.90
2023-01-21T00:10:45.973Z,99.90
2023-01-21T00:13:12.779Z,99.90
2023-01-21T00:15:39.772Z,99.90
2023-01-21T00:18:07.078Z,99.90
2023-01-21T00:20:34.052Z,99.90
2023-01-21T00:23:00.891Z,99.90
2023-01-21T00:25:27.794Z,99.90
2023-01-21T00:27:54.863Z,99.90
2023-01-21T00:30:21.876Z,99.90
2023-01-21T00:32:48.717Z,99.90
2023-01-21T00:35:16.315Z,99.90
2023-01-21T00:37:43.105Z,99.90
2023-01-21T00:40:10.383Z,99.90
2023-01-21T00:42:37.212Z,99.90
2023-01-21T00:45:04.526Z,99.90
2023-01-21T00:47:31.255Z,99.90
2023-01-21T00:49:58.021Z,99.90
2023-01-21T00:52:24.824Z,99.90
2023-01-21T00:54:51.574Z,99.90
2023-01-21T00:57:18.362Z,99.90
2023-01-21T00:59:45.278Z,99.90
2023-01-21T01:02:12.281Z,99.90
2023-01-21T01:04:39.113Z,99.90
2023-01-21T01:07:06.071Z,99.90
2023-01-21T01:09:33.018Z,99.90
2023-01-21T01:11:59.947Z,99.90
2023-01-21T01:14:26.887Z,99.90
2023-01-21T01:16:53.680Z,99.90
2023-01-21T01:19:20.541Z,99.90
2023-01-21T01:21:47.329Z,99.90
2023-01-21T01:24:14.043Z,99.90
2023-01-21T01:26:42.209Z,99.90
2023-01-21T01:29:13.349Z,99.90
2023-01-21T01:31:40.196Z,99.90
2023-01-21T01:34:07.509Z,99.90
2023-01-21T01:36:34.226Z,99.90
2023-01-21T01:39:01.451Z,99.70
2023-01-21T01:41:30.319Z,99.60
2023-01-21T01:44:04.608Z,99.10
2023-01-21T01:46:34.372Z,99.60
2023-01-21T01:49:07.185Z,99.20
2023-01-21T01:51:58.145Z,98.50
2023-01-21T01:54:48.152Z,98.50
2023-01-21T01:57:17.988Z,99.30
2023-01-21T01:59:46.903Z,99.90
2023-01-21T02:02:17.167Z,99.90
2023-01-21T02:04:51.896Z,99.90
2023-01-21T02:07:21.281Z,99.90
2023-01-21T02:09:48.471Z,99.90
2023-01-21T02:12:18.230Z,99.90
2023-01-21T02:14:45.851Z,99.90
2023-01-21T02:17:27.253Z,99.90
2023-01-21T02:20:31.564Z,99.90
2023-01-21T02:23:20.502Z,99.90
2023-01-21T02:26:18.025Z,99.90
2023-01-21T02:29:07.659Z,99.90
2023-01-21T02:32:08.595Z,99.90
2023-01-21T02:34:56.879Z,99.90
2023-01-21T02:37:28.374Z,99.90
2023-01-21T02:40:19.876Z,99.90
2023-01-21T02:42:54.914Z,99.90
2023-01-21T02:45:49.462Z,99.90
2023-01-21T02:48:21.731Z,99.90
2023-01-21T02:50:53.872Z,99.90
2023-01-21T02:53:25.550Z,99.90
2023-01-21T02:55:52.684Z,99.90
2023-01-21T02:58:27.961Z,99.90
2023-01-21T03:00:54.662Z,99.90
2023-01-21T03:04:01.883Z,99.90
2023-01-21T03:06:34.790Z,99.90
2023-01-21T03:09:18.422Z,99.90
2023-01-21T03:12:09.892Z,99.90
2023-01-21T03:15:03.615Z,99.90
2023-01-21T03:17:53.889Z,99.90
2023-01-21T03:20:31.224Z,99.90
2023-01-21T03:23:05.901Z,99.90
2023-01-21T03:25:35.135Z,99.90
2023-01-21T03:28:06.699Z,99.90
2023-01-21T03:30:35.962Z,99.90
2023-01-21T03:33:04.005Z,99.90
2023-01-21T03:35:35.499Z,99.90
2023-01-21T03:38:08.130Z,99.90
2023-01-21T03:40:50.836Z,99.90
2023-01-21T03:43:17.604Z,99.90
2023-01-21T03:45:58.151Z,99.90
2023-01-21T03:48:48.363Z,99.90
2023-01-21T03:51:24.118Z,99.90
2023-01-21T03:53:59.367Z,99.90
2023-01-21T03:56:27.109Z,99.90
2023-01-21T03:58:54.554Z,99.90
2023-01-21T04:01:21.731Z,99.90
2023-01-21T04:03:48.866Z,99.90
2023-01-21T04:06:17.977Z,99.90
2023-01-21T04:08:45.012Z,99.90
2023-01-21T04:11:12.088Z,99.90
2023-01-21T04:13:39.187Z,99.90
2023-01-21T04:16:06.525Z,99.90
2023-01-21T04:18:33.334Z,99.90
2023-01-21T04:21:00.106Z,99.90
2023-01-21T04:23:27.037Z,99.90
2023-01-21T04:25:53.855Z,99.90
2023-01-21T04:28:20.654Z,99.90
2023-01-21T04:30:48.161Z,99.90
2023-01-21T04:33:15.831Z,99.90
2023-01-21T04:35:42.513Z,99.90
2023-01-21T04:38:09.548Z,99.90
2023-01-21T04:40:36.287Z,99.90
2023-01-21T04:43:02.945Z,99.90
2023-01-21T04:45:29.633Z,99.90
2023-01-21T04:47:56.313Z,99.90
2023-01-21T04:50:22.991Z,99.90
2023-01-21T04:52:49.802Z,99.90
2023-01-21T04:55:16.924Z,99.90
2023-01-21T04:57:43.744Z,99.90
2023-01-21T05:00:10.947Z,99.90
2023-01-21T05:02:37.776Z,99.90
2023-01-21T05:05:04.915Z,99.90
2023-01-21T05:07:31.931Z,99.90
2023-01-21T05:09:58.648Z,99.90
2023-01-21T05:12:25.517Z,99.90
2023-01-21T05:14:57.840Z,99.90
2023-01-21T05:17:24.714Z,99.90
2023-01-21T05:19:52.394Z,99.90
2023-01-21T05:22:19.235Z,99.90
2023-01-21T05:24:45.973Z,99.90
2023-01-21T05:27:12.716Z,99.90
2023-01-21T05:29:40.254Z,99.90
2023-01-21T05:32:06.962Z,99.90
2023-01-21T05:34:33.645Z,99.90
2023-01-21T05:37:00.518Z,99.90
2023-01-21T05:39:27.228Z,99.90
2023-01-21T05:41:54.032Z,99.90
2023-01-21T05:44:20.732Z,99.90
2023-01-21T05:46:47.387Z,99.90
2023-01-21T05:49:14.142Z,99.90
2023-01-21T05:51:41.111Z,99.90
2023-01-21T05:54:07.927Z,99.90
2023-01-21T05:56:34.865Z,99.90
2023-01-21T05:59:01.901Z,99.90
2023-01-21T06:01:28.632Z,99.90
2023-01-21T06:03:55.425Z,99.90
2023-01-21T06:06:22.323Z,99.90
2023-01-21T06:08:49.055Z,99.90
2023-01-21T06:11:15.767Z,99.90
2023-01-21T06:13:42.558Z,99.90
2023-01-21T06:16:09.401Z,99.90
2023-01-21T06:18:36.158Z,99.90
2023-01-21T06:21:02.887Z,99.90
2023-01-21T06:23:29.620Z,99.90
2023-01-21T06:26:02.850Z,99.90
2023-01-21T06:28:30.816Z,99.90
2023-01-21T06:30:57.621Z,99.90
2023-01-21T06:33:24.502Z,99.90
2023-01-21T06:35:51.321Z,99.90
2023-01-21T06:38:18.079Z,99.90
2023-01-21T06:40:44.896Z,99.90
2023-01-21T06:43:11.881Z,99.90
2023-01-21T06:45:38.631Z,99.90
2023-01-21T06:48:05.670Z,99.90
2023-01-21T06:50:32.486Z,99.90
2023-01-21T06:52:59.171Z,99.90
2023-01-21T06:55:26.020Z,99.90
2023-01-21T06:57:52.835Z,99.90
2023-01-21T07:00:20.299Z,99.90
2023-01-21T07:02:47.280Z,99.90
2023-01-21T07:05:15.439Z,99.90
2023-01-21T07:07:42.299Z,99.90
2023-01-21T07:10:09.806Z,99.90
2023-01-21T07:12:36.675Z,99.90
2023-01-21T07:15:03.669Z,99.90
2023-01-21T07:17:30.383Z,99.90
2023-01-21T07:19:57.161Z,99.90
2023-01-21T07:22:24.047Z,99.90
2023-01-21T07:24:50.767Z,99.90
2023-01-21T07:27:17.562Z,99.90
2023-01-21T07:29:44.309Z,99.90
2023-01-21T07:32:10.988Z,99.90
2023-01-21T07:34:37.957Z,99.90
2023-01-21T07:37:04.803Z,99.90
2023-01-21T07:39:31.593Z,99.90
2023-01-21T07:41:58.332Z,99.90
2023-01-21T07:44:25.017Z,99.90
2023-01-21T07:46:52.091Z,99.90
2023-01-21T07:49:18.860Z,99.90
2023-01-21T07:51:46.439Z,99.90
2023-01-21T07:54:14.420Z,99.90
2023-01-21T07:56:41.667Z,99.90
2023-01-21T07:59:10.114Z,99.90
2023-01-21T08:01:36.904Z,99.90
2023-01-21T08:04:03.818Z,99.90
2023-01-21T08:06:30.474Z,99.90
2023-01-21T08:08:57.154Z,99.90
2023-01-21T08:11:23.945Z,99.90
2023-01-21T08:13:50.937Z,99.90
2023-01-21T08:16:17.763Z,99.90
2023-01-21T08:18:44.569Z,99.90
2023-01-21T08:21:11.225Z,99.90
2023-01-21T08:23:38.032Z,99.90
2023-01-21T08:26:06.688Z,99.90
2023-01-21T08:28:34.048Z,99.90
2023-01-21T08:31:09.753Z,99.90
2023-01-21T08:33:36.847Z,99.90
2023-01-21T08:36:06.107Z,99.90
2023-01-21T08:38:34.227Z,99.90
2023-01-21T08:41:00.984Z,99.90
2023-01-21T08:43:27.846Z,99.90
2023-01-21T08:45:59.391Z,99.90
2023-01-21T08:48:26.274Z,99.90
2023-01-21T08:50:53.067Z,99.90
2023-01-21T08:53:20.071Z,99.90
2023-01-21T08:55:46.825Z,99.90
2023-01-21T08:58:13.647Z,99.90
2023-01-21T09:00:41.937Z,99.90
2023-01-21T09:03:08.734Z,99.90
2023-01-21T09:05:35.505Z,99.90
2023-01-21T09:08:02.455Z,99.90
2023-01-21T09:10:55.260Z,99.90
2023-01-21T09:13:22.181Z,99.90
2023-01-21T09:15:48.941Z,99.90
2023-01-21T09:18:15.746Z,99.90
2023-01-21T09:20:42.624Z,99.90
2023-01-21T09:23:25.421Z,99.90
2023-01-21T09:26:03.497Z,99.90
2023-01-21T09:28:31.649Z,99.90
2023-01-21T09:31:02.091Z,99.90
2023-01-21T09:33:30.564Z,99.90
2023-01-21T09:35:59.306Z,99.90
2023-01-21T09:38:27.025Z,99.90
2023-01-21T09:40:57.015Z,99.90
2023-01-21T09:43:34.884Z,99.90
2023-01-21T09:46:07.172Z,99.90
2023-01-21T09:48:41.911Z,99.90
2023-01-21T09:51:20.539Z,99.90
2023-01-21T09:53:54.968Z,99.90
2023-01-21T09:56:32.770Z,99.90
2023-01-21T09:59:22.349Z,99.90
2023-01-21T10:01:49.952Z,99.90
2023-01-21T10:04:48.094Z,99.90
2023-01-21T10:07:27.874Z,99.90
2023-01-21T10:10:08.499Z,99.90
2023-01-21T10:12:44.101Z,99.90
2023-01-21T10:15:13.561Z,99.90
2023-01-21T10:17:54.013Z,99.90
2023-01-21T10:20:43.980Z,99.90
2023-01-21T10:23:25.652Z,99.90
2023-01-21T10:25:52.634Z,99.90
2023-01-21T10:28:30.534Z,99.90
2023-01-21T10:31:07.188Z,99.90
2023-01-21T10:33:34.292Z,99.90
2023-01-21T10:36:06.781Z,99.90
2023-01-21T10:39:16.808Z,99.90
2023-01-21T10:42:00.501Z,99.90
2023-01-21T10:44:58.827Z,99.90
2023-01-21T10:47:37.173Z,99.90
2023-01-21T10:50:32.281Z,99.90
2023-01-21T10:52:58.992Z,99.90
2023-01-21T10:55:51.281Z,99.90
2023-01-21T10:58:28.918Z,99.90
2023-01-21T11:00:58.907Z,99.90
2023-01-21T11:03:41.308Z,99.90
2023-01-21T11:06:12.567Z,99.90
2023-01-21T11:08:41.298Z,99.90
2023-01-21T11:11:09.298Z,99.90
2023-01-21T11:13:36.136Z,99.90
2023-01-21T11:16:04.563Z,99.90
2023-01-21T11:18:33.297Z,99.90
2023-01-21T11:21:16.488Z,99.90
2023-01-21T11:23:57.398Z,99.90
2023-01-21T11:26:33.178Z,99.90
2023-01-21T11:29:17.840Z,99.90
2023-01-21T11:31:48.716Z,99.90
2023-01-21T11:34:20.353Z,99.40
2023-01-21T11:37:07.003Z,97.50
2023-01-21T11:39:38.208Z,92.50
2023-01-21T11:42:15.354Z,79.70
2023-01-21T11:45:06.518Z,72.00
2023-01-21T11:47:50.928Z,66.30
2023-01-21T11:50:37.712Z,56.40
2023-01-21T11:53:07.894Z,51.80
2023-01-21T11:55:56.976Z,43.90
2023-01-21T11:58:32.420Z,47.20
2023-01-21T12:01:01.969Z,42.70
2023-01-21T12:03:37.335Z,31.20
2023-01-21T12:06:06.215Z,29.40
2023-01-21T12:08:36.118Z,28.30
2023-01-21T12:11:05.580Z,27.70
2023-01-21T12:13:37.798Z,26.50
2023-01-21T12:16:29.110Z,25.60
2023-01-21T12:19:16.585Z,22.90
2023-01-21T12:22:05.566Z,22.20
2023-01-21T12:24:59.556Z,24.50
2023-01-21T12:27:53.257Z,26.90
2023-01-21T12:30:35.819Z,26.80
2023-01-21T12:33:12.785Z,26.90
2023-01-21T12:35:46.651Z,26.20
2023-01-21T12:38:18.568Z,27.80
2023-01-21T12:40:54.473Z,26.20
2023-01-21T12:43:24.449Z,25.40
2023-01-21T12:46:03.934Z,24.70
2023-01-21T12:48:53.856Z,26.00
2023-01-21T12:51:25.827Z,27.40
2023-01-21T12:54:01.840Z,26.40
2023-01-21T12:56:57.119Z,26.40
2023-01-21T12:59:47.395Z,26.50
2023-01-21T13:02:32.278Z,24.40
2023-01-21T13:05:02.158Z,24.10
2023-01-21T13:07:34.061Z,23.50
2023-01-21T13:10:13.131Z,22.30
2023-01-21T13:12:40.904Z,22.10
2023-01-21T13:15:33.797Z,23.30
2023-01-21T13:18:05.699Z,23.30
2023-01-21T13:20:38.419Z,23.60
2023-01-21T13:23:26.031Z,25.70
2023-01-21T13:26:30.996Z,24.80
2023-01-21T13:29:18.482Z,25.00
2023-01-21T13:32:13.914Z,24.90
2023-01-21T13:35:07.179Z,25.20
2023-01-21T13:37:48.411Z,25.20
2023-01-21T13:40:44.150Z,25.80
2023-01-21T13:43:21.644Z,26.30
2023-01-21T13:46:12.314Z,26.20
2023-01-21T13:49:03.246Z,26.60
2023-01-21T13:51:42.906Z,27.40
2023-01-21T13:54:34.289Z,26.30
2023-01-21T13:57:11.463Z,26.10
2023-01-21T13:59:41.181Z,25.70
2023-01-21T14:02:26.290Z,26.30
2023-01-21T14:05:17.894Z,26.30
2023-01-21T14:08:11.377Z,26.50
2023-01-21T14:10:52.507Z,27.00
2023-01-21T14:13:41.103Z,28.70
2023-01-21T14:16:16.948Z,28.10
2023-01-21T14:19:05.336Z,28.00
2023-01-21T14:22:02.859Z,28.30
2023-01-21T14:25:01.402Z,28.90
2023-01-21T14:27:49.259Z,29.10
2023-01-21T14:30:20.590Z,29.90
2023-01-21T14:33:08.951Z,28.20
2023-01-21T14:35:47.935Z,28.60
2023-01-21T14:38:23.775Z,28.80
2023-01-21T14:41:02.797Z,29.10
2023-01-21T14:43:32.724Z,30.30
2023-01-21T14:46:23.727Z,32.40
2023-01-21T14:49:00.950Z,32.20
2023-01-21T14:51:30.588Z,32.30
2023-01-21T14:54:02.767Z,32.20
2023-01-21T14:56:33.878Z,31.90
2023-01-21T14:59:26.557Z,32.30
2023-01-21T15:02:01.875Z,33.60
2023-01-21T15:04:40.131Z,36.70
2023-01-21T15:07:17.778Z,35.50
2023-01-21T15:09:50.532Z,34.20
2023-01-21T15:12:27.425Z,35.30
2023-01-21T15:14:59.351Z,34.30
2023-01-21T15:17:53.697Z,33.90
2023-01-21T15:20:44.864Z,34.70
2023-01-21T15:23:17.628Z,34.20
2023-01-21T15:26:09.143Z,33.90
2023-01-21T15:28:59.775Z,34.00
2023-01-21T15:31:26.612Z,34.20
2023-01-21T15:34:03.859Z,34.10
2023-01-21T15:36:34.303Z,33.50
2023-01-21T15:39:10.885Z,36.30
2023-01-21T15:42:02.518Z,37.70
2023-01-21T15:44:49.352Z,38.20
2023-01-21T15:47:38.656Z,36.30
2023-01-21T15:50:14.160Z,36.90
2023-01-21T15:52:57.911Z,35.90
2023-01-21T15:56:02.324Z,35.90
2023-01-21T15:58:59.818Z,36.00
2023-01-21T16:01:40.188Z,38.20
2023-01-21T16:04:21.972Z,37.30
2023-01-21T16:07:14.280Z,38.50
2023-01-21T16:09:59.788Z,38.70
2023-01-21T16:12:50.805Z,37.50
2023-01-21T16:15:59.313Z,37.50
2023-01-21T16:18:26.043Z,36.70
2023-01-21T16:20:56.390Z,37.30
2023-01-21T16:23:26.770Z,38.00
2023-01-21T16:25:54.027Z,37.70
2023-01-21T16:28:21.397Z,37.60
2023-01-21T16:30:57.449Z,37.60
2023-01-21T16:33:24.908Z,37.90
2023-01-21T16:35:56.145Z,38.50
2023-01-21T16:38:26.927Z,39.10
2023-01-21T16:41:08.525Z,38.70
2023-01-21T16:43:47.576Z,38.60
2023-01-21T16:46:17.305Z,38.20
2023-01-21T16:48:48.851Z,37.70
2023-01-21T16:51:22.058Z,38.50
2023-01-21T16:53:49.594Z,38.20
2023-01-21T16:56:28.653Z,38.20
2023-01-21T16:58:56.149Z,38.70
2023-01-21T17:01:26.523Z,38.40
2023-01-21T17:03:53.386Z,38.70
2023-01-21T17:06:25.503Z,39.00
2023-01-21T17:08:58.574Z,38.80
2023-01-21T17:11:25.543Z,38.90
2023-01-21T17:13:52.472Z,39.30
2023-01-21T17:16:28.072Z,39.40
2023-01-21T17:19:00.162Z,40.20
2023-01-21T17:21:33.280Z,39.60
2023-01-21T17:24:07.666Z,39.90
2023-01-21T17:26:43.592Z,39.80
2023-01-21T17:29:19.797Z,39.90
2023-01-21T17:32:04.746Z,40.80
2023-01-21T17:34:34.232Z,41.70
2023-01-21T17:37:01.363Z,41.10
2023-01-21T17:39:46.318Z,41.20
2023-01-21T17:42:24.755Z,41.60
2023-01-21T17:44:55.707Z,41.90
2023-01-21T17:47:26.154Z,42.00
2023-01-21T17:50:05.334Z,42.70
2023-01-21T17:52:32.003Z,43.60
2023-01-21T17:55:29.170Z,43.30
2023-01-21T17:57:56.377Z,42.60
2023-01-21T18:00:31.729Z,41.90
2023-01-21T18:02:58.864Z,42.70
2023-01-21T18:05:25.916Z,43.10
2023-01-21T18:07:52.745Z,43.90
2023-01-21T18:10:25.489Z,43.80
2023-01-21T18:12:54.791Z,44.40
2023-01-21T18:15:21.708Z,43.50
2023-01-21T18:17:53.559Z,43.00
2023-01-21T18:20:23.429Z,43.60
2023-01-21T18:22:51.153Z,44.30
2023-01-21T18:25:19.372Z,44.90
2023-01-21T18:27:51.756Z,44.90
2023-01-21T18:30:24.661Z,44.60
2023-01-21T18:32:52.659Z,45.60
2023-01-21T18:35:28.300Z,45.50
2023-01-21T18:37:55.163Z,44.70
2023-01-21T18:40:23.680Z,45.00
2023-01-21T18:42:53.102Z,45.20
2023-01-21T18:45:22.597Z,45.80
2023-01-21T18:47:50.769Z,46.30
2023-01-21T18:50:36.022Z,47.10
2023-01-21T18:53:02.832Z,46.80
2023-01-21T18:55:29.977Z,46.60
2023-01-21T18:57:57.126Z,46.10
2023-01-21T19:00:32.131Z,46.50
2023-01-21T19:03:01.653Z,47.00
2023-01-21T19:05:34.912Z,47.80
2023-01-21T19:08:02.360Z,47.80
2023-01-21T19:10:29.046Z,47.80
2023-01-21T19:12:56.178Z,47.80
2023-01-21T19:15:27.108Z,48.00
2023-01-21T19:17:54.289Z,47.60
2023-01-21T19:20:26.935Z,47.40
2023-01-21T19:22:54.923Z,47.30
2023-01-21T19:25:23.454Z,47.30
2023-01-21T19:27:52.053Z,47.20
2023-01-21T19:30:23.811Z,47.20
2023-01-21T19:32:52.100Z,47.50
2023-01-21T19:35:31.644Z,47.60
2023-01-21T19:37:58.973Z,48.40
2023-01-21T19:40:27.936Z,49.50
2023-01-21T19:42:54.986Z,50.10
2023-01-21T19:45:24.431Z,51.20
2023-01-21T19:47:51.498Z,53.30
2023-01-21T19:50:24.594Z,53.30
2023-01-21T19:52:52.677Z,53.10
2023-01-21T19:55:22.492Z,52.20
2023-01-21T19:57:56.726Z,51.30
2023-01-21T20:00:29.202Z,51.80
2023-01-21T20:02:55.996Z,51.60
2023-01-21T20:05:23.578Z,53.10
2023-01-21T20:07:51.207Z,54.30
2023-01-21T20:10:26.037Z,56.40
2023-01-21T20:12:53.415Z,56.60
2023-01-21T20:15:27.540Z,57.90
2023-01-21T20:17:56.298Z,59.90
2023-01-21T20:20:26.358Z,62.20
2023-01-21T20:22:53.377Z,65.00
2023-01-21T20:25:22.743Z,66.80
2023-01-21T20:27:56.604Z,69.70
2023-01-21T20:30:29.512Z,72.80
2023-01-21T20:32:56.829Z,74.40
2023-01-21T20:35:27.054Z,77.60
2023-01-21T20:37:55.915Z,81.80
2023-01-21T20:40:30.619Z,81.00
2023-01-21T20:42:57.770Z,83.40
2023-01-21T20:45:32.035Z,85.40
2023-01-21T20:48:02.072Z,87.40
2023-01-21T20:50:33.537Z,89.20
2023-01-21T20:53:00.320Z,89.70
2023-01-21T20:55:28.968Z,90.70
2023-01-21T20:57:56.445Z,91.50
2023-01-21T21:00:24.393Z,92.70
2023-01-21T21:02:51.158Z,94.30
2023-01-21T21:05:18.968Z,96.80
2023-01-21T21:07:46.066Z,99.10
2023-01-21T21:10:25.787Z,99.90
2023-01-21T21:12:52.987Z,99.90
2023-01-21T21:15:20.477Z,99.90
2023-01-21T21:17:48.054Z,99.90
2023-01-21T21:20:21.356Z,99.90
2023-01-21T21:22:48.028Z,99.90
2023-01-21T21:25:19.835Z,99.90
2023-01-21T21:27:47.107Z,99.90
2023-01-21T21:30:26.519Z,99.90
2023-01-21T21:32:55.136Z,99.90
2023-01-21T21:35:26.831Z,99.90
2023-01-21T21:37:55.119Z,99.90
2023-01-21T21:40:23.890Z,99.90
2023-01-21T21:43:09.833Z,99.90
2023-01-21T21:45:37.531Z,99.90
2023-01-21T21:48:23.348Z,99.90
2023-01-21T21:50:57.180Z,99.90
2023-01-21T21:53:24.025Z,99.90
2023-01-21T21:55:50.793Z,99.90
2023-01-21T21:58:17.487Z,99.90
2023-01-21T22:00:44.742Z,99.90
2023-01-21T22:03:12.664Z,99.90
2023-01-21T22:05:39.359Z,99.90
2023-01-21T22:08:07.033Z,99.90
2023-01-21T22:10:34.076Z,99.90
2023-01-21T22:13:00.765Z,99.90
2023-01-21T22:15:27.485Z,99.90
2023-01-21T22:17:55.281Z,99.90
2023-01-21T22:20:22.002Z,99.90
2023-01-21T22:22:49.060Z,99.90
2023-01-21T22:25:16.515Z,99.90
2023-01-21T22:27:44.535Z,99.90
2023-01-21T22:30:12.480Z,99.90
2023-01-21T22:32:39.185Z,99.90
2023-01-21T22:35:06.334Z,99.90
2023-01-21T22:37:32.986Z,99.90
2023-01-21T22:39:59.877Z,99.90
2023-01-21T22:42:26.534Z,99.90
2023-01-21T22:44:53.280Z,99.90
2023-01-21T22:47:20.090Z,99.90
2023-01-21T22:49:49.206Z,99.90
2023-01-21T22:52:15.922Z,99.90
2023-01-21T22:54:42.697Z,99.90
2023-01-21T22:57:09.461Z,99.90
2023-01-21T22:59:36.331Z,99.90
2023-01-21T23:02:03.098Z,99.90
2023-01-21T23:04:29.790Z,99.90
2023-01-21T23:06:56.610Z,99.90
2023-01-21T23:09:23.475Z,99.90
2023-01-21T23:11:52.565Z,99.90
2023-01-21T23:14:19.857Z,99.90
2023-01-21T23:16:47.072Z,99.90
2023-01-21T23:19:14.046Z,99.90
2023-01-21T23:21:40.883Z,99.90
2023-01-21T23:24:08.113Z,99.90
2023-01-21T23:26:35.275Z,99.90
2023-01-21T23:29:02.217Z,99.90
2023-01-21T23:31:29.123Z,99.90
2023-01-21T23:33:57.213Z,99.90
2023-01-21T23:36:24.020Z,99.90
2023-01-21T23:38:50.951Z,99.90
2023-01-21T23:41:19.773Z,99.90
2023-01-21T23:43:46.678Z,99.90
2023-01-21T23:46:16.609Z,99.90
2023-01-21T23:48:43.611Z,99.90
2023-01-21T23:51:13.852Z,99.90
2023-01-21T23:53:40.622Z,99.90
2023-01-21T23:56:12.152Z,99.90
2023-01-21T23:58:39.225Z,99.90
